createdAt,value
2023-04-19T00:01:16.934Z,8.96
2023-04-19T00:03:43.975Z,8.93
2023-04-19T00:06:10.936Z,8.92
2023-04-19T00:08:37.369Z,8.90
2023-04-19T00:11:03.911Z,8.89
2023-04-19T00:13:30.523Z,8.88
2023-04-19T00:15:57.030Z,8.88
2023-04-19T00:18:23.595Z,8.86
2023-04-19T00:20:50.196Z,8.83
2023-04-19T00:23:17.037Z,8.81
2023-04-19T00:25:43.631Z,8.79
2023-04-19T00:28:10.162Z,8.78
2023-04-19T00:30:36.699Z,8.77
2023-04-19T00:33:03.492Z,8.76
2023-04-19T00:35:30.087Z,8.72
2023-04-19T00:37:56.600Z,8.68
2023-04-19T00:40:23.141Z,8.63
2023-04-19T00:42:49.666Z,8.59
2023-04-19T00:45:16.297Z,8.56
2023-04-19T00:47:43.533Z,8.52
2023-04-19T00:50:11.024Z,8.49
2023-04-19T00:52:37.862Z,8.45
2023-04-19T00:55:05.653Z,8.38
2023-04-19T00:57:32.487Z,8.35
2023-04-19T00:59:59.062Z,8.31
2023-04-19T01:02:26.101Z,8.28
2023-04-19T01:04:52.805Z,8.25
2023-04-19T01:07:19.482Z,8.20
2023-04-19T01:09:46.815Z,8.16
2023-04-19T01:12:13.434Z,8.16
2023-04-19T01:14:40.409Z,8.14
2023-04-19T01:17:07.689Z,8.15
2023-04-19T01:19:37.304Z,8.15
2023-04-19T01:22:04.190Z,8.19
2023-04-19T01:24:31.045Z,8.23
2023-04-19T01:26:57.707Z,8.22
2023-04-19T01:29:24.358Z,8.26
2023-04-19T01:31:53.845Z,8.27
2023-04-19T01:34:20.697Z,8.31
2023-04-19T01:36:47.275Z,8.32
2023-04-19T01:39:13.822Z,8.36
2023-04-19T01:41:40.849Z,8.36
2023-04-19T01:44:07.565Z,8.38
2023-04-19T01:46:34.191Z,8.42
2023-04-19T01:49:00.806Z,8.45
2023-04-19T01:51:27.451Z,8.47
2023-04-19T01:53:54.774Z,8.49
2023-04-19T01:56:24.143Z,8.52
2023-04-19T01:58:51.121Z,8.55
2023-04-19T02:01:17.743Z,8.57
2023-04-19T02:03:44.785Z,8.60
2023-04-19T02:06:12.787Z,8.61
2023-04-19T02:08:43.117Z,8.62
2023-04-19T02:11:10.879Z,8.64
2023-04-19T02:13:37.761Z,8.66
2023-04-19T02:16:06.110Z,8.67
2023-04-19T02:18:33.364Z,8.70
2023-04-19T02:20:59.868Z,8.73
2023-04-19T02:23:26.523Z,8.74
2023-04-19T02:25:53.623Z,8.76
2023-04-19T02:28:20.125Z,8.79
2023-04-19T02:30:46.900Z,8.80
2023-04-19T02:33:13.734Z,8.81
2023-04-19T02:35:40.198Z,8.84
2023-04-19T02:38:06.629Z,8.86
2023-04-19T02:40:33.240Z,8.88
2023-04-19T02:42:59.803Z,8.90
2023-04-19T02:45:26.341Z,8.90
2023-04-19T02:47:52.921Z,8.91
2023-04-19T02:50:19.517Z,8.94
2023-04-19T02:52:46.158Z,8.96
2023-04-19T02:55:12.888Z,8.96
2023-04-19T02:57:39.514Z,8.97
2023-04-19T03:00:06.945Z,8.97
2023-04-19T03:02:33.664Z,8.99
2023-04-19T03:05:00.221Z,8.99
2023-04-19T03:07:26.746Z,8.99
2023-04-19T03:09:53.210Z,9.03
2023-04-19T03:12:19.815Z,9.04
2023-04-19T03:14:46.354Z,9.04
2023-04-19T03:17:12.943Z,9.06
2023-04-19T03:19:39.616Z,9.07
2023-04-19T03:22:06.564Z,9.08
2023-04-19T03:24:34.444Z,9.09
2023-04-19T03:27:03.738Z,9.10
2023-04-19T03:29:30.325Z,9.12
2023-04-19T03:31:57.012Z,9.13
2023-04-19T03:34:23.512Z,9.13
2023-04-19T03:36:50.219Z,9.12
2023-04-19T03:39:16.714Z,9.13
2023-04-19T03:41:43.378Z,9.12
2023-04-19T03:44:09.933Z,9.14
2023-04-19T03:46:36.460Z,9.17
2023-04-19T03:49:03.124Z,9.16
2023-04-19T03:51:30.019Z,9.16
2023-04-19T03:53:56.764Z,9.16
2023-04-19T03:56:24.197Z,9.13
2023-04-19T03:58:51.681Z,9.09
2023-04-19T04:01:22.426Z,9.05
2023-04-19T04:03:49.367Z,8.99
2023-04-19T04:06:16.243Z,8.94
2023-04-19T04:08:42.779Z,8.90
2023-04-19T04:11:09.482Z,8.87
2023-04-19T04:13:36.196Z,8.83
2023-04-19T04:16:03.039Z,8.80
2023-04-19T04:18:29.681Z,8.78
2023-04-19T04:20:56.202Z,8.76
2023-04-19T04:23:23.500Z,8.72
2023-04-19T04:26:04.378Z,8.71
2023-04-19T04:28:31.631Z,8.67
2023-04-19T04:31:00.387Z,8.64
2023-04-19T04:33:28.559Z,8.59
2023-04-19T04:35:56.519Z,8.56
2023-04-19T04:38:24.996Z,8.52
2023-04-19T04:40:53.877Z,8.49
2023-04-19T04:43:21.959Z,8.44
2023-04-19T04:45:48.824Z,8.40
2023-04-19T04:48:15.481Z,8.38
2023-04-19T04:50:42.367Z,8.35
2023-04-19T04:53:11.093Z,8.30
2023-04-19T04:55:39.389Z,8.27
2023-04-19T04:58:05.866Z,8.24
2023-04-19T05:00:32.509Z,8.20
2023-04-19T05:02:59.789Z,8.15
2023-04-19T05:05:26.617Z,8.14
2023-04-19T05:07:53.083Z,8.13
2023-04-19T05:10:19.570Z,8.11
2023-04-19T05:12:46.290Z,8.10
2023-04-19T05:15:12.791Z,8.10
2023-04-19T05:17:39.258Z,8.09
2023-04-19T05:20:06.378Z,8.07
2023-04-19T05:22:33.027Z,8.08
2023-04-19T05:24:59.493Z,8.05
2023-04-19T05:27:25.919Z,8.04
2023-04-19T05:29:52.692Z,8.04
2023-04-19T05:32:19.415Z,8.03
2023-04-19T05:34:45.958Z,8.05
2023-04-19T05:37:12.487Z,8.07
2023-04-19T05:39:38.987Z,8.07
2023-04-19T05:42:06.135Z,8.08
2023-04-19T05:44:32.992Z,8.09
2023-04-19T05:46:59.453Z,8.11
2023-04-19T05:49:26.111Z,8.13
2023-04-19T05:51:54.728Z,8.15
2023-04-19T05:54:21.449Z,8.19
2023-04-19T05:56:47.925Z,8.26
2023-04-19T05:59:14.869Z,8.30
2023-04-19T06:01:41.541Z,8.33
2023-04-19T06:04:08.360Z,8.38
2023-04-19T06:06:35.168Z,8.43
2023-04-19T06:09:01.761Z,8.45
2023-04-19T06:11:38.361Z,8.50
2023-04-19T06:14:10.693Z,8.59
2023-04-19T06:16:37.280Z,8.65
2023-04-19T06:19:03.940Z,8.69
2023-04-19T06:21:31.780Z,8.72
2023-04-19T06:23:58.678Z,8.78
2023-04-19T06:26:25.217Z,8.89
2023-04-19T06:28:52.057Z,9.00
2023-04-19T06:31:18.690Z,9.11
2023-04-19T06:33:46.081Z,9.19
2023-04-19T06:36:13.061Z,9.25
2023-04-19T06:38:41.422Z,9.32
2023-04-19T06:41:09.182Z,9.36
2023-04-19T06:43:35.925Z,9.40
2023-04-19T06:46:04.686Z,9.41
2023-04-19T06:48:31.394Z,9.45
2023-04-19T06:50:57.933Z,9.49
2023-04-19T06:53:24.795Z,9.54
2023-04-19T06:55:59.126Z,9.61
2023-04-19T06:58:25.691Z,9.65
2023-04-19T07:00:52.341Z,9.69
2023-04-19T07:03:19.452Z,9.72
2023-04-19T07:05:46.433Z,9.79
2023-04-19T07:08:12.950Z,9.84
2023-04-19T07:10:39.449Z,9.85
2023-04-19T07:13:06.054Z,9.88
2023-04-19T07:15:32.492Z,9.96
2023-04-19T07:17:58.969Z,10.00
2023-04-19T07:20:25.483Z,10.04
2023-04-19T07:22:52.274Z,10.05
2023-04-19T07:25:18.911Z,10.07
2023-04-19T07:27:45.487Z,10.07
2023-04-19T07:30:12.106Z,10.11
2023-04-19T07:32:40.144Z,10.11
2023-04-19T07:35:07.142Z,10.12
2023-04-19T07:37:33.582Z,10.16
2023-04-19T07:40:00.173Z,10.22
2023-04-19T07:42:26.849Z,10.23
2023-04-19T07:44:53.308Z,10.26
2023-04-19T07:47:19.824Z,10.32
2023-04-19T07:49:46.250Z,10.45
2023-04-19T07:52:12.876Z,10.56
2023-04-19T07:54:39.624Z,10.58
2023-04-19T07:57:06.161Z,10.57
2023-04-19T07:59:33.474Z,10.58
2023-04-19T08:02:00.363Z,10.64
2023-04-19T08:04:27.432Z,10.70
2023-04-19T08:06:55.236Z,10.65
2023-04-19T08:09:21.760Z,10.65
2023-04-19T08:11:48.272Z,10.71
2023-04-19T08:14:28.516Z,10.73
2023-04-19T08:19:32.741Z,10.93
2023-04-19T08:21:59.609Z,11.03
2023-04-19T08:24:27.083Z,11.08
2023-04-19T08:26:54.363Z,11.17
2023-04-19T08:29:22.185Z,11.28
2023-04-19T08:31:49.009Z,11.31
2023-04-19T08:34:15.574Z,11.36
2023-04-19T08:36:48.725Z,11.40
2023-04-19T08:39:31.710Z,11.43
2023-04-19T08:42:13.294Z,11.46
2023-04-19T08:45:13.126Z,11.48
2023-04-19T08:47:48.530Z,11.60
2023-04-19T08:50:33.653Z,11.70
2023-04-19T08:53:16.164Z,11.75
2023-04-19T08:58:30.794Z,12.05
2023-04-19T09:01:08.944Z,12.12
2023-04-19T09:03:56.041Z,12.20
2023-04-19T09:06:27.911Z,12.30
2023-04-19T09:09:28.794Z,12.29
2023-04-19T09:12:00.657Z,12.30
2023-04-19T09:14:29.098Z,12.33
2023-04-19T09:17:12.728Z,12.42
2023-04-19T09:19:47.017Z,12.50
2023-04-19T09:22:14.881Z,12.57
2023-04-19T09:27:12.274Z,12.76
2023-04-19T09:29:38.948Z,12.81
2023-04-19T09:35:16.500Z,12.85
2023-04-19T09:40:25.194Z,13.01
2023-04-19T09:48:05.655Z,13.24
2023-04-19T09:50:33.742Z,13.29
2023-04-19T09:53:06.400Z,13.41
2023-04-19T09:55:42.154Z,13.56
2023-04-19T09:58:21.186Z,13.56
2023-04-19T10:00:52.930Z,13.49
2023-04-19T10:03:22.793Z,13.60
2023-04-19T10:05:50.155Z,13.60
2023-04-19T10:08:17.477Z,13.71
2023-04-19T10:10:46.885Z,13.85
2023-04-19T10:13:20.653Z,14.02
2023-04-19T10:15:55.305Z,14.20
2023-04-19T10:18:26.882Z,14.19
2023-04-19T10:20:58.519Z,14.29
2023-04-19T10:23:25.040Z,14.43
2023-04-19T10:25:57.506Z,14.41
2023-04-19T10:28:24.230Z,14.45
2023-04-19T10:30:57.153Z,14.58
2023-04-19T10:33:27.977Z,14.68
2023-04-19T10:35:59.234Z,14.62
2023-04-19T10:38:38.849Z,14.71
2023-04-19T10:41:13.646Z,14.75
2023-04-19T10:43:46.212Z,14.75
2023-04-19T10:46:36.501Z,14.75
2023-04-19T10:49:05.076Z,14.91
2023-04-19T10:51:36.594Z,15.06
2023-04-19T10:54:28.580Z,15.16
2023-04-19T10:57:11.575Z,15.16
2023-04-19T10:59:39.000Z,15.25
2023-04-19T11:02:26.160Z,15.47
2023-04-19T11:04:58.083Z,15.62
2023-04-19T11:07:24.900Z,15.82
2023-04-19T11:09:52.580Z,15.82
2023-04-19T11:12:20.993Z,15.93
2023-04-19T11:14:57.701Z,15.80
2023-04-19T11:17:27.835Z,15.91
2023-04-19T11:19:55.840Z,15.90
2023-04-19T11:22:39.709Z,16.11
2023-04-19T11:25:06.894Z,16.32
2023-04-19T11:27:34.176Z,16.30
2023-04-19T11:30:09.325Z,16.37
2023-04-19T11:32:36.534Z,16.36
2023-04-19T11:35:09.957Z,16.27
2023-04-19T11:37:37.833Z,16.07
2023-04-19T11:40:06.390Z,16.20
2023-04-19T11:42:33.707Z,16.28
2023-04-19T11:45:00.232Z,16.25
2023-04-19T11:47:27.589Z,16.35
2023-04-19T11:49:57.743Z,16.47
2023-04-19T11:52:26.269Z,16.56
2023-04-19T11:54:53.746Z,16.73
2023-04-19T11:57:32.518Z,16.79
2023-04-19T12:00:12.587Z,17.05
2023-04-19T12:02:41.008Z,17.02
2023-04-19T12:05:10.155Z,17.05
2023-04-19T12:07:37.021Z,17.38
2023-04-19T12:10:11.699Z,17.62
2023-04-19T12:12:39.311Z,17.69
2023-04-19T12:15:06.530Z,17.67
2023-04-19T12:17:32.901Z,17.59
2023-04-19T12:19:59.337Z,17.57
2023-04-19T12:22:25.756Z,17.71
2023-04-19T12:24:53.498Z,18.00
2023-04-19T12:27:19.855Z,18.06
2023-04-19T12:29:46.228Z,18.06
2023-04-19T12:32:13.177Z,17.79
2023-04-19T12:34:39.744Z,17.75
2023-04-19T12:37:06.231Z,17.84
2023-04-19T12:39:32.650Z,17.91
2023-04-19T12:41:59.076Z,17.96
2023-04-19T12:44:25.784Z,17.90
2023-04-19T12:46:55.210Z,17.72
2023-04-19T12:49:21.588Z,17.73
2023-04-19T12:51:48.094Z,17.98
2023-04-19T12:54:15.747Z,18.16
2023-04-19T12:56:42.151Z,18.27
2023-04-19T12:59:08.549Z,18.23
2023-04-19T13:01:35.134Z,18.17
2023-04-19T13:04:01.737Z,18.41
2023-04-19T13:06:28.262Z,18.54
2023-04-19T13:08:55.193Z,18.39
2023-04-19T13:11:23.474Z,18.48
2023-04-19T13:13:51.758Z,18.42
2023-04-19T13:16:18.937Z,18.37
2023-04-19T13:18:45.603Z,18.43
2023-04-19T13:21:12.014Z,18.36
2023-04-19T13:23:38.413Z,18.30
2023-04-19T13:26:05.067Z,18.58
2023-04-19T13:28:31.644Z,18.77
2023-04-19T13:30:58.142Z,18.90
2023-04-19T13:33:25.985Z,18.85
2023-04-19T13:35:52.419Z,18.91
2023-04-19T13:38:18.846Z,18.62
2023-04-19T13:40:45.285Z,18.73
2023-04-19T13:43:11.739Z,19.26
2023-04-19T13:45:38.102Z,19.55
2023-04-19T13:48:04.855Z,19.73
2023-04-19T13:50:31.359Z,20.05
2023-04-19T13:52:57.814Z,20.09
2023-04-19T13:55:24.205Z,20.18
2023-04-19T13:57:51.034Z,20.07
2023-04-19T14:00:18.136Z,20.20
2023-04-19T14:02:45.800Z,20.37
2023-04-19T14:05:12.369Z,20.46
2023-04-19T14:07:41.779Z,20.48
2023-04-19T14:10:09.400Z,20.58
2023-04-19T14:12:36.170Z,20.78
2023-04-19T14:15:02.843Z,20.92
2023-04-19T14:17:29.360Z,21.37
2023-04-19T14:19:56.732Z,21.35
2023-04-19T14:22:23.223Z,21.10
2023-04-19T14:24:49.735Z,20.69
2023-04-19T14:27:16.238Z,20.85
2023-04-19T14:29:42.669Z,21.13
2023-04-19T14:32:24.029Z,21.14
2023-04-19T14:34:52.483Z,21.24
2023-04-19T14:37:19.638Z,21.21
2023-04-19T14:39:46.222Z,21.00
2023-04-19T14:42:12.768Z,21.13
2023-04-19T14:44:48.605Z,21.14
2023-04-19T14:47:14.986Z,21.08
2023-04-19T14:49:44.339Z,21.32
2023-04-19T14:52:11.032Z,21.25
2023-04-19T14:54:38.520Z,21.39
2023-04-19T14:57:05.054Z,21.62
2023-04-19T14:59:31.546Z,21.63
2023-04-19T15:01:58.162Z,21.31
2023-04-19T15:04:24.952Z,21.61
2023-04-19T15:06:51.630Z,21.89
2023-04-19T15:09:18.617Z,22.37
2023-04-19T15:11:45.318Z,22.40
2023-04-19T15:14:11.864Z,22.16
2023-04-19T15:16:38.336Z,21.61
2023-04-19T15:19:07.322Z,21.47
2023-04-19T15:21:34.089Z,21.49
2023-04-19T15:24:01.558Z,21.59
2023-04-19T15:26:28.123Z,21.82
2023-04-19T15:28:55.899Z,21.76
2023-04-19T15:31:25.287Z,21.79
2023-04-19T15:33:51.936Z,22.00
2023-04-19T15:36:18.344Z,22.00
2023-04-19T15:38:44.814Z,21.79
2023-04-19T15:41:11.301Z,21.51
2023-04-19T15:43:37.757Z,21.18
2023-04-19T15:46:04.449Z,20.83
2023-04-19T15:48:30.966Z,20.55
2023-04-19T15:50:57.466Z,20.65
2023-04-19T15:53:23.916Z,20.88
2023-04-19T15:55:50.442Z,21.32
2023-04-19T15:58:16.891Z,21.62
2023-04-19T16:00:43.395Z,21.06
2023-04-19T16:03:12.471Z,20.42
2023-04-19T16:05:39.222Z,19.89
2023-04-19T16:08:11.653Z,20.27
2023-04-19T16:10:38.951Z,20.25
2023-04-19T16:13:08.401Z,20.50
2023-04-19T16:15:35.031Z,21.01
2023-04-19T16:18:01.604Z,21.28
2023-04-19T16:20:28.176Z,21.48
2023-04-19T16:22:54.609Z,21.84
2023-04-19T16:25:21.136Z,22.00
2023-04-19T16:27:47.678Z,21.88
2023-04-19T16:30:15.433Z,21.81
2023-04-19T16:32:42.567Z,21.87
2023-04-19T16:35:09.717Z,21.84
2023-04-19T16:37:36.483Z,21.53
2023-04-19T16:40:08.257Z,21.39
2023-04-19T16:42:36.292Z,21.50
2023-04-19T16:45:04.199Z,21.59
2023-04-19T16:47:31.192Z,21.58
2023-04-19T16:49:58.803Z,21.68
2023-04-19T16:52:26.971Z,21.67
2023-04-19T16:54:53.836Z,21.46
2023-04-19T16:57:20.555Z,21.32
2023-04-19T16:59:47.774Z,20.94
2023-04-19T17:02:14.463Z,20.80
2023-04-19T17:04:41.331Z,20.69
2023-04-19T17:07:11.609Z,20.09
2023-04-19T17:09:38.177Z,19.36
2023-04-19T17:12:04.964Z,18.94
2023-04-19T17:14:35.034Z,18.45
2023-04-19T17:17:01.822Z,18.06
2023-04-19T17:19:28.386Z,17.72
2023-04-19T17:21:54.825Z,17.41
2023-04-19T17:24:22.291Z,17.12
2023-04-19T17:26:49.798Z,17.03
2023-04-19T17:29:16.475Z,16.75
2023-04-19T17:31:43.079Z,16.47
2023-04-19T17:34:09.669Z,16.24
2023-04-19T17:36:36.073Z,15.93
2023-04-19T17:39:02.519Z,15.71
2023-04-19T17:41:28.874Z,15.57
2023-04-19T17:43:55.401Z,15.52
2023-04-19T17:46:22.322Z,15.41
2023-04-19T17:48:48.753Z,15.13
2023-04-19T17:51:15.158Z,14.99
2023-04-19T17:53:41.623Z,14.77
2023-04-19T17:56:08.102Z,14.59
2023-04-19T17:58:36.393Z,14.42
2023-04-19T18:01:03.478Z,14.28
2023-04-19T18:03:30.808Z,14.18
2023-04-19T18:05:57.546Z,14.06
2023-04-19T18:08:24.022Z,13.97
2023-04-19T18:10:51.049Z,13.86
2023-04-19T18:13:17.478Z,13.77
2023-04-19T18:15:43.920Z,13.72
2023-04-19T18:18:10.473Z,13.61
2023-04-19T18:20:36.875Z,13.52
2023-04-19T18:23:03.442Z,13.43
2023-04-19T18:25:29.978Z,13.38
2023-04-19T18:27:56.346Z,13.35
2023-04-19T18:30:22.760Z,13.25
2023-04-19T18:32:49.214Z,13.20
2023-04-19T18:35:15.636Z,13.13
2023-04-19T18:37:42.147Z,13.03
2023-04-19T18:40:09.008Z,12.93
2023-04-19T18:42:35.368Z,12.86
2023-04-19T18:45:03.980Z,12.78
2023-04-19T18:47:30.648Z,12.69
2023-04-19T18:50:05.049Z,12.63
2023-04-19T18:52:33.967Z,12.54
2023-04-19T18:55:00.744Z,12.45
2023-04-19T18:57:27.994Z,12.42
2023-04-19T18:59:57.731Z,12.32
2023-04-19T19:02:24.624Z,12.22
2023-04-19T19:04:57.965Z,12.10
2023-04-19T19:07:36.166Z,12.00
2023-04-19T19:10:15.934Z,11.92
2023-04-19T19:12:44.596Z,11.81
2023-04-19T19:15:11.366Z,11.74
2023-04-19T19:17:38.138Z,11.66
2023-04-19T19:20:06.825Z,11.60
2023-04-19T19:22:34.084Z,11.52
2023-04-19T19:25:01.089Z,11.42
2023-04-19T19:27:27.685Z,11.37
2023-04-19T19:29:54.200Z,11.31
2023-04-19T19:32:20.710Z,11.28
2023-04-19T19:34:55.400Z,11.21
2023-04-19T19:37:26.369Z,11.13
2023-04-19T19:39:52.834Z,11.07
2023-04-19T19:42:19.722Z,11.02
2023-04-19T19:44:46.261Z,10.98
2023-04-19T19:47:13.179Z,10.94
2023-04-19T19:52:09.020Z,10.84
2023-04-19T19:54:35.852Z,10.79
2023-04-19T19:59:35.012Z,10.73
2023-04-19T20:02:02.284Z,10.71
2023-04-19T20:04:38.640Z,10.66
2023-04-19T20:09:35.531Z,10.59
2023-04-19T20:12:04.859Z,10.56
2023-04-19T20:14:31.381Z,10.52
2023-04-19T20:16:57.846Z,10.47
2023-04-19T20:19:24.584Z,10.42
2023-04-19T20:21:51.129Z,10.40
2023-04-19T20:24:17.776Z,10.38
2023-04-19T20:26:44.187Z,10.33
2023-04-19T20:29:10.657Z,10.30
2023-04-19T20:31:37.179Z,10.27
2023-04-19T20:34:04.176Z,10.22
2023-04-19T20:36:31.765Z,10.17
2023-04-19T20:38:58.864Z,10.11
2023-04-19T20:41:25.537Z,10.07
2023-04-19T20:43:51.991Z,10.01
2023-04-19T20:46:18.426Z,9.96
2023-04-19T20:48:44.815Z,9.91
2023-04-19T20:51:12.710Z,9.87
2023-04-19T20:53:39.228Z,9.81
2023-04-19T20:56:05.758Z,9.77
2023-04-19T20:58:33.284Z,9.73
2023-04-19T21:00:59.767Z,9.69
2023-04-19T21:03:26.509Z,9.65
2023-04-19T21:05:53.047Z,9.63
2023-04-19T21:08:19.415Z,9.58
2023-04-19T21:10:45.783Z,9.55
2023-04-19T21:13:12.235Z,9.48
2023-04-19T21:15:38.787Z,9.44
2023-04-19T21:18:05.262Z,9.39
2023-04-19T21:20:31.805Z,9.36
2023-04-19T21:22:58.169Z,9.32
2023-04-19T21:25:24.629Z,9.27
2023-04-19T21:27:51.078Z,9.25
2023-04-19T21:30:17.856Z,9.23
2023-04-19T21:32:44.398Z,9.18
2023-04-19T21:35:11.000Z,9.13
2023-04-19T21:37:37.927Z,9.08
2023-04-19T21:40:05.154Z,9.04
2023-04-19T21:42:31.571Z,9.02
2023-04-19T21:44:58.119Z,8.97
2023-04-19T21:47:24.497Z,8.93
2023-04-19T21:49:51.480Z,8.89
2023-04-19T21:52:17.941Z,8.86
2023-04-19T21:54:44.793Z,8.83
2023-04-19T21:57:11.460Z,8.80
2023-04-19T21:59:37.916Z,8.77
2023-04-19T22:02:04.296Z,8.73
2023-04-19T22:04:31.611Z,8.70
2023-04-19T22:07:02.061Z,8.66
2023-04-19T22:09:29.535Z,8.62
2023-04-19T22:11:55.981Z,8.59
2023-04-19T22:14:23.246Z,8.58
2023-04-19T22:16:50.077Z,8.55
2023-04-19T22:19:16.787Z,8.52
2023-04-19T22:21:43.335Z,8.47
2023-04-19T22:24:09.936Z,8.44
2023-04-19T22:26:36.401Z,8.41
2023-04-19T22:29:02.809Z,8.38
2023-04-19T22:31:29.234Z,8.36
2023-04-19T22:33:55.687Z,8.32
2023-04-19T22:36:22.219Z,8.28
2023-04-19T22:38:48.631Z,8.25
2023-04-19T22:41:15.952Z,8.22
2023-04-19T22:43:42.610Z,8.18
2023-04-19T22:46:09.327Z,8.15
2023-04-19T22:48:36.344Z,8.10
2023-04-19T22:51:02.779Z,8.07
2023-04-19T22:53:29.217Z,8.04
2023-04-19T22:55:55.782Z,8.03
2023-04-19T22:58:22.184Z,8.00
2023-04-19T23:00:48.574Z,7.98
2023-04-19T23:03:15.074Z,7.97
2023-04-19T23:05:41.766Z,7.94
2023-04-19T23:08:09.286Z,7.92
2023-04-19T23:10:38.201Z,7.89
2023-04-19T23:13:06.809Z,7.88
2023-04-19T23:15:33.481Z,7.86
2023-04-19T23:18:02.120Z,7.84
2023-04-19T23:20:29.026Z,7.83
2023-04-19T23:22:55.654Z,7.81
2023-04-19T23:25:22.320Z,7.79
2023-04-19T23:27:50.247Z,7.76
2023-04-19T23:30:18.892Z,7.76
2023-04-19T23:32:45.794Z,7.74
2023-04-19T23:35:12.444Z,7.70
2023-04-19T23:37:39.318Z,7.65
2023-04-19T23:40:06.392Z,7.62
2023-04-19T23:42:32.786Z,7.59
2023-04-19T23:44:59.446Z,7.56
2023-04-19T23:47:25.928Z,7.51
2023-04-19T23:49:52.319Z,7.45
2023-04-19T23:52:22.438Z,7.42
2023-04-19T23:54:49.495Z,7.36
2023-04-19T23:57:16.094Z,7.33
2023-04-19T23:59:42.483Z,7.29
